sensor_id;sensor_type;location;lat;lon;timestamp;temperature;humidity
83553;DHT22;73510;50.866;5.420;2023-12-07T00:00:22;2.90;72.10
83553;DHT22;73510;50.866;5.420;2023-12-07T00:02:47;3.00;72.50
83553;DHT22;73510;50.866;5.420;2023-12-07T00:05:13;3.10;72.60
83553;DHT22;73510;50.866;5.420;2023-12-07T00:07:39;3.10;72.50
83553;DHT22;73510;50.866;5.420;2023-12-07T00:10:05;3.10;72.60
83553;DHT22;73510;50.866;5.420;2023-12-07T00:12:31;3.10;72.70
83553;DHT22;73510;50.866;5.420;2023-12-07T00:14:56;3.10;72.80
83553;DHT22;73510;50.866;5.420;2023-12-07T00:17:25;3.20;72.60
83553;DHT22;73510;50.866;5.420;2023-12-07T00:19:54;3.30;72.50
83553;DHT22;73510;50.866;5.420;2023-12-07T00:22:24;3.30;72.50
83553;DHT22;73510;50.866;5.420;2023-12-07T00:24:52;3.30;72.60
83553;DHT22;73510;50.866;5.420;2023-12-07T00:27:18;3.30;72.70
83553;DHT22;73510;50.866;5.420;2023-12-07T00:29:44;3.30;72.60
83553;DHT22;73510;50.866;5.420;2023-12-07T00:32:09;3.30;72.60
83553;DHT22;73510;50.866;5.420;2023-12-07T00:34:35;3.40;72.70
83553;DHT22;73510;50.866;5.420;2023-12-07T00:37:01;3.50;72.50
83553;DHT22;73510;50.866;5.420;2023-12-07T00:39:28;3.50;72.50
83553;DHT22;73510;50.866;5.420;2023-12-07T00:41:54;3.50;72.50
83553;DHT22;73510;50.866;5.420;2023-12-07T00:44:19;3.50;72.70
83553;DHT22;73510;50.866;5.420;2023-12-07T00:46:45;3.50;72.70
83553;DHT22;73510;50.866;5.420;2023-12-07T00:49:11;3.50;72.60
83553;DHT22;73510;50.866;5.420;2023-12-07T00:51:38;3.50;72.70
83553;DHT22;73510;50.866;5.420;2023-12-07T00:54:04;3.50;72.50
83553;DHT22;73510;50.866;5.420;2023-12-07T00:56:29;3.60;72.50
83553;DHT22;73510;50.866;5.420;2023-12-07T00:58:56;3.60;72.60
83553;DHT22;73510;50.866;5.420;2023-12-07T01:01:21;3.60;72.60
83553;DHT22;73510;50.866;5.420;2023-12-07T01:03:47;3.60;72.50
83553;DHT22;73510;50.866;5.420;2023-12-07T01:06:12;3.50;72.80
83553;DHT22;73510;50.866;5.420;2023-12-07T01:08:38;3.60;72.80
83553;DHT22;73510;50.866;5.420;2023-12-07T01:11:06;3.60;72.80
83553;DHT22;73510;50.866;5.420;2023-12-07T01:13:32;3.60;72.70
83553;DHT22;73510;50.866;5.420;2023-12-07T01:15:57;3.60;72.70
83553;DHT22;73510;50.866;5.420;2023-12-07T01:18:23;3.60;72.70
83553;DHT22;73510;50.866;5.420;2023-12-07T01:20:49;3.70;72.70
83553;DHT22;73510;50.866;5.420;2023-12-07T01:23:16;3.70;72.50
83553;DHT22;73510;50.866;5.420;2023-12-07T01:25:41;3.70;72.50
83553;DHT22;73510;50.866;5.420;2023-12-07T01:28:07;3.70;72.60
83553;DHT22;73510;50.866;5.420;2023-12-07T01:30:34;3.70;72.70
83553;DHT22;73510;50.866;5.420;2023-12-07T01:33:02;3.70;72.80
83553;DHT22;73510;50.866;5.420;2023-12-07T01:35:28;3.70;72.70
83553;DHT22;73510;50.866;5.420;2023-12-07T01:37:57;3.70;72.40
83553;DHT22;73510;50.866;5.420;2023-12-07T01:40:25;3.70;72.50
83553;DHT22;73510;50.866;5.420;2023-12-07T01:42:55;3.70;72.70
83553;DHT22;73510;50.866;5.420;2023-12-07T01:45:20;3.70;72.60
83553;DHT22;73510;50.866;5.420;2023-12-07T01:47:47;3.70;72.50
83553;DHT22;73510;50.866;5.420;2023-12-07T01:50:15;3.70;72.40
83553;DHT22;73510;50.866;5.420;2023-12-07T01:52:45;3.70;72.30
83553;DHT22;73510;50.866;5.420;2023-12-07T01:55:11;3.70;72.60
83553;DHT22;73510;50.866;5.420;2023-12-07T01:57:37;3.60;72.70
83553;DHT22;73510;50.866;5.420;2023-12-07T02:00:03;3.60;72.80
83553;DHT22;73510;50.866;5.420;2023-12-07T02:02:30;3.70;72.60
83553;DHT22;73510;50.866;5.420;2023-12-07T02:04:57;3.70;72.50
83553;DHT22;73510;50.866;5.420;2023-12-07T02:07:23;3.70;72.50
83553;DHT22;73510;50.866;5.420;2023-12-07T02:09:50;3.70;72.50
83553;DHT22;73510;50.866;5.420;2023-12-07T02:12:17;3.70;72.60
83553;DHT22;73510;50.866;5.420;2023-12-07T02:14:45;3.70;72.80
83553;DHT22;73510;50.866;5.420;2023-12-07T02:17:21;3.70;72.80
83553;DHT22;73510;50.866;5.420;2023-12-07T02:20:13;3.70;72.70
83553;DHT22;73510;50.866;5.420;2023-12-07T02:22:46;3.70;72.80
83553;DHT22;73510;50.866;5.420;2023-12-07T02:25:14;3.80;72.80
83553;DHT22;73510;50.866;5.420;2023-12-07T02:27:44;3.70;72.90
83553;DHT22;73510;50.866;5.420;2023-12-07T02:30:13;3.70;73.00
83553;DHT22;73510;50.866;5.420;2023-12-07T02:32:42;3.80;72.80
83553;DHT22;73510;50.866;5.420;2023-12-07T02:35:10;3.80;72.70
83553;DHT22;73510;50.866;5.420;2023-12-07T02:37:48;3.80;72.70
83553;DHT22;73510;50.866;5.420;2023-12-07T02:40:21;3.80;72.60
83553;DHT22;73510;50.866;5.420;2023-12-07T02:42:48;3.80;72.50
83553;DHT22;73510;50.866;5.420;2023-12-07T02:45:14;3.70;72.50
83553;DHT22;73510;50.866;5.420;2023-12-07T02:47:41;3.70;72.20
83553;DHT22;73510;50.866;5.420;2023-12-07T02:50:09;3.70;72.20
83553;DHT22;73510;50.866;5.420;2023-12-07T02:52:35;3.70;72.10
83553;DHT22;73510;50.866;5.420;2023-12-07T02:55:01;3.70;72.30
83553;DHT22;73510;50.866;5.420;2023-12-07T02:57:31;3.70;72.30
83553;DHT22;73510;50.866;5.420;2023-12-07T02:59:59;3.70;72.30
83553;DHT22;73510;50.866;5.420;2023-12-07T03:02:25;3.70;72.50
83553;DHT22;73510;50.866;5.420;2023-12-07T03:04:50;3.70;72.50
83553;DHT22;73510;50.866;5.420;2023-12-07T03:07:16;3.70;72.50
83553;DHT22;73510;50.866;5.420;2023-12-07T03:09:42;3.70;72.50
83553;DHT22;73510;50.866;5.420;2023-12-07T03:12:08;3.70;72.60
83553;DHT22;73510;50.866;5.420;2023-12-07T03:14:34;3.70;72.60
83553;DHT22;73510;50.866;5.420;2023-12-07T03:16:59;3.60;72.60
83553;DHT22;73510;50.866;5.420;2023-12-07T03:19:25;3.60;72.60
83553;DHT22;73510;50.866;5.420;2023-12-07T03:21:51;3.60;72.50
83553;DHT22;73510;50.866;5.420;2023-12-07T03:24:16;3.70;72.40
83553;DHT22;73510;50.866;5.420;2023-12-07T03:26:44;3.70;72.40
83553;DHT22;73510;50.866;5.420;2023-12-07T03:29:10;3.70;72.20
83553;DHT22;73510;50.866;5.420;2023-12-07T03:31:36;3.70;72.60
83553;DHT22;73510;50.866;5.420;2023-12-07T03:34:02;3.70;72.70
83553;DHT22;73510;50.866;5.420;2023-12-07T03:36:30;3.70;72.30
83553;DHT22;73510;50.866;5.420;2023-12-07T03:38:57;3.70;72.30
83553;DHT22;73510;50.866;5.420;2023-12-07T03:41:22;3.70;72.60
83553;DHT22;73510;50.866;5.420;2023-12-07T03:43:48;3.80;72.40
83553;DHT22;73510;50.866;5.420;2023-12-07T03:46:14;3.80;72.50
83553;DHT22;73510;50.866;5.420;2023-12-07T03:48:39;3.80;72.10
83553;DHT22;73510;50.866;5.420;2023-12-07T03:51:05;3.90;72.00
83553;DHT22;73510;50.866;5.420;2023-12-07T03:53:31;3.80;71.90
83553;DHT22;73510;50.866;5.420;2023-12-07T03:55:57;3.80;71.90
83553;DHT22;73510;50.866;5.420;2023-12-07T03:58:22;3.80;71.70
83553;DHT22;73510;50.866;5.420;2023-12-07T04:00:48;3.80;71.40
83553;DHT22;73510;50.866;5.420;2023-12-07T04:03:14;3.70;71.30
83553;DHT22;73510;50.866;5.420;2023-12-07T04:05:39;3.70;71.20
83553;DHT22;73510;50.866;5.420;2023-12-07T04:08:05;3.70;71.50
83553;DHT22;73510;50.866;5.420;2023-12-07T04:10:31;3.60;71.20
83553;DHT22;73510;50.866;5.420;2023-12-07T04:12:57;3.60;71.10
83553;DHT22;73510;50.866;5.420;2023-12-07T04:15:23;3.60;71.40
83553;DHT22;73510;50.866;5.420;2023-12-07T04:17:50;3.60;71.20
83553;DHT22;73510;50.866;5.420;2023-12-07T04:20:15;3.60;71.50
83553;DHT22;73510;50.866;5.420;2023-12-07T04:22:42;3.60;71.50
83553;DHT22;73510;50.866;5.420;2023-12-07T04:25:09;3.60;71.90
83553;DHT22;73510;50.866;5.420;2023-12-07T04:27:36;3.60;71.70
83553;DHT22;73510;50.866;5.420;2023-12-07T04:30:02;3.70;71.70
83553;DHT22;73510;50.866;5.420;2023-12-07T04:32:29;3.70;71.70
83553;DHT22;73510;50.866;5.420;2023-12-07T04:34:55;3.70;72.00
83553;DHT22;73510;50.866;5.420;2023-12-07T04:37:21;3.70;71.60
83553;DHT22;73510;50.866;5.420;2023-12-07T04:39:46;3.70;71.70
83553;DHT22;73510;50.866;5.420;2023-12-07T04:42:12;3.70;71.80
83553;DHT22;73510;50.866;5.420;2023-12-07T04:44:38;3.80;71.80
83553;DHT22;73510;50.866;5.420;2023-12-07T04:47:04;3.80;72.00
83553;DHT22;73510;50.866;5.420;2023-12-07T04:49:29;3.90;71.50
83553;DHT22;73510;50.866;5.420;2023-12-07T04:51:56;3.90;71.40
83553;DHT22;73510;50.866;5.420;2023-12-07T04:54:21;3.90;71.70
83553;DHT22;73510;50.866;5.420;2023-12-07T04:56:47;3.90;71.70
83553;DHT22;73510;50.866;5.420;2023-12-07T04:59:13;3.90;71.80
83553;DHT22;73510;50.866;5.420;2023-12-07T05:01:39;3.90;71.90
83553;DHT22;73510;50.866;5.420;2023-12-07T05:04:05;3.90;72.10
83553;DHT22;73510;50.866;5.420;2023-12-07T05:06:34;3.90;71.80
83553;DHT22;73510;50.866;5.420;2023-12-07T05:09:00;4.00;71.70
83553;DHT22;73510;50.866;5.420;2023-12-07T05:11:26;4.00;71.70
83553;DHT22;73510;50.866;5.420;2023-12-07T05:13:52;4.00;71.60
83553;DHT22;73510;50.866;5.420;2023-12-07T05:16:17;4.00;71.60
83553;DHT22;73510;50.866;5.420;2023-12-07T05:18:43;4.00;71.60
83553;DHT22;73510;50.866;5.420;2023-12-07T05:21:09;4.00;71.80
83553;DHT22;73510;50.866;5.420;2023-12-07T05:23:35;4.00;71.80
83553;DHT22;73510;50.866;5.420;2023-12-07T05:26:01;4.00;71.50
83553;DHT22;73510;50.866;5.420;2023-12-07T05:28:26;4.00;71.50
83553;DHT22;73510;50.866;5.420;2023-12-07T05:30:53;4.00;71.50
83553;DHT22;73510;50.866;5.420;2023-12-07T05:33:19;4.00;71.80
83553;DHT22;73510;50.866;5.420;2023-12-07T05:35:45;4.00;71.50
83553;DHT22;73510;50.866;5.420;2023-12-07T05:38:11;4.00;71.70
83553;DHT22;73510;50.866;5.420;2023-12-07T05:40:37;4.10;71.60
83553;DHT22;73510;50.866;5.420;2023-12-07T05:43:03;4.10;71.40
83553;DHT22;73510;50.866;5.420;2023-12-07T05:45:29;4.10;71.30
83553;DHT22;73510;50.866;5.420;2023-12-07T05:47:55;4.10;71.10
83553;DHT22;73510;50.866;5.420;2023-12-07T05:50:21;4.10;70.90
83553;DHT22;73510;50.866;5.420;2023-12-07T05:52:47;4.10;70.70
83553;DHT22;73510;50.866;5.420;2023-12-07T05:55:13;4.10;70.50
83553;DHT22;73510;50.866;5.420;2023-12-07T05:57:39;4.10;70.40
83553;DHT22;73510;50.866;5.420;2023-12-07T06:00:06;4.00;70.40
83553;DHT22;73510;50.866;5.420;2023-12-07T06:02:35;4.00;70.20
83553;DHT22;73510;50.866;5.420;2023-12-07T06:05:02;4.00;70.20
83553;DHT22;73510;50.866;5.420;2023-12-07T06:07:29;4.00;70.10
83553;DHT22;73510;50.866;5.420;2023-12-07T06:09:56;4.00;70.00
83553;DHT22;73510;50.866;5.420;2023-12-07T06:12:22;3.90;70.10
83553;DHT22;73510;50.866;5.420;2023-12-07T06:14:50;3.90;69.90
83553;DHT22;73510;50.866;5.420;2023-12-07T06:17:17;3.90;70.10
83553;DHT22;73510;50.866;5.420;2023-12-07T06:19:42;3.90;70.10
83553;DHT22;73510;50.866;5.420;2023-12-07T06:22:08;3.90;69.90
83553;DHT22;73510;50.866;5.420;2023-12-07T06:24:34;3.90;69.80
83553;DHT22;73510;50.866;5.420;2023-12-07T06:27:02;3.90;69.90
83553;DHT22;73510;50.866;5.420;2023-12-07T06:29:28;3.90;69.90
83553;DHT22;73510;50.866;5.420;2023-12-07T06:31:54;3.90;69.80
83553;DHT22;73510;50.866;5.420;2023-12-07T06:34:20;3.90;70.10
83553;DHT22;73510;50.866;5.420;2023-12-07T06:36:46;3.90;70.30
83553;DHT22;73510;50.866;5.420;2023-12-07T06:39:13;3.90;70.10
83553;DHT22;73510;50.866;5.420;2023-12-07T06:41:39;3.90;69.90
83553;DHT22;73510;50.866;5.420;2023-12-07T06:44:06;3.90;69.80
83553;DHT22;73510;50.866;5.420;2023-12-07T06:46:32;3.90;69.70
83553;DHT22;73510;50.866;5.420;2023-12-07T06:48:57;3.90;69.80
83553;DHT22;73510;50.866;5.420;2023-12-07T06:51:24;3.90;69.90
83553;DHT22;73510;50.866;5.420;2023-12-07T06:53:49;3.90;69.70
83553;DHT22;73510;50.866;5.420;2023-12-07T06:56:15;3.90;69.60
83553;DHT22;73510;50.866;5.420;2023-12-07T06:58:41;3.80;69.70
83553;DHT22;73510;50.866;5.420;2023-12-07T07:01:07;3.70;69.50
83553;DHT22;73510;50.866;5.420;2023-12-07T07:03:33;3.70;69.60
83553;DHT22;73510;50.866;5.420;2023-12-07T07:06:00;3.60;69.60
83553;DHT22;73510;50.866;5.420;2023-12-07T07:08:26;3.50;69.60
83553;DHT22;73510;50.866;5.420;2023-12-07T07:10:51;3.50;69.70
83553;DHT22;73510;50.866;5.420;2023-12-07T07:13:17;3.50;69.80
83553;DHT22;73510;50.866;5.420;2023-12-07T07:15:45;3.50;69.80
83553;DHT22;73510;50.866;5.420;2023-12-07T07:18:11;3.40;69.80
83553;DHT22;73510;50.866;5.420;2023-12-07T07:20:37;3.40;69.80
83553;DHT22;73510;50.866;5.420;2023-12-07T07:23:03;3.30;69.80
83553;DHT22;73510;50.866;5.420;2023-12-07T07:25:28;3.30;69.80
83553;DHT22;73510;50.866;5.420;2023-12-07T07:27:54;3.30;69.90
83553;DHT22;73510;50.866;5.420;2023-12-07T07:30:21;3.30;69.90
83553;DHT22;73510;50.866;5.420;2023-12-07T07:32:46;3.20;69.90
83553;DHT22;73510;50.866;5.420;2023-12-07T07:35:12;3.10;70.10
83553;DHT22;73510;50.866;5.420;2023-12-07T07:37:40;3.10;70.10
83553;DHT22;73510;50.866;5.420;2023-12-07T07:40:07;3.10;70.10
83553;DHT22;73510;50.866;5.420;2023-12-07T07:42:33;3.10;70.10
83553;DHT22;73510;50.866;5.420;2023-12-07T07:44:59;3.10;70.10
83553;DHT22;73510;50.866;5.420;2023-12-07T07:47:25;3.10;70.10
83553;DHT22;73510;50.866;5.420;2023-12-07T07:49:50;3.10;70.00
83553;DHT22;73510;50.866;5.420;2023-12-07T07:52:16;3.10;70.10
83553;DHT22;73510;50.866;5.420;2023-12-07T07:54:42;3.10;70.20
83553;DHT22;73510;50.866;5.420;2023-12-07T07:57:08;3.10;70.20
83553;DHT22;73510;50.866;5.420;2023-12-07T07:59:34;3.10;70.20
83553;DHT22;73510;50.866;5.420;2023-12-07T08:01:59;3.10;70.20
83553;DHT22;73510;50.866;5.420;2023-12-07T08:04:25;3.10;70.10
83553;DHT22;73510;50.866;5.420;2023-12-07T08:06:51;3.10;70.20
83553;DHT22;73510;50.866;5.420;2023-12-07T08:09:17;3.10;70.10
83553;DHT22;73510;50.866;5.420;2023-12-07T08:11:43;3.10;70.00
83553;DHT22;73510;50.866;5.420;2023-12-07T08:14:08;3.10;69.90
83553;DHT22;73510;50.866;5.420;2023-12-07T08:16:34;3.10;70.00
83553;DHT22;73510;50.866;5.420;2023-12-07T08:19:01;3.10;69.90
83553;DHT22;73510;50.866;5.420;2023-12-07T08:21:26;3.10;70.00
83553;DHT22;73510;50.866;5.420;2023-12-07T08:23:55;3.10;70.00
83553;DHT22;73510;50.866;5.420;2023-12-07T08:26:21;3.10;69.90
83553;DHT22;73510;50.866;5.420;2023-12-07T08:28:46;3.10;69.80
83553;DHT22;73510;50.866;5.420;2023-12-07T08:31:12;3.20;69.50
83553;DHT22;73510;50.866;5.420;2023-12-07T08:33:38;3.20;69.30
83553;DHT22;73510;50.866;5.420;2023-12-07T08:36:05;3.30;69.50
83553;DHT22;73510;50.866;5.420;2023-12-07T08:38:32;3.30;69.40
83553;DHT22;73510;50.866;5.420;2023-12-07T08:40:57;3.30;69.40
83553;DHT22;73510;50.866;5.420;2023-12-07T08:43:24;3.30;69.30
83553;DHT22;73510;50.866;5.420;2023-12-07T08:45:53;3.30;69.30
83553;DHT22;73510;50.866;5.420;2023-12-07T08:48:22;3.30;69.30
83553;DHT22;73510;50.866;5.420;2023-12-07T08:50:48;3.30;69.20
83553;DHT22;73510;50.866;5.420;2023-12-07T08:53:14;3.30;69.20
83553;DHT22;73510;50.866;5.420;2023-12-07T08:55:39;3.40;69.20
83553;DHT22;73510;50.866;5.420;2023-12-07T08:58:06;3.50;69.20
83553;DHT22;73510;50.866;5.420;2023-12-07T09:00:32;3.50;69.00
83553;DHT22;73510;50.866;5.420;2023-12-07T09:02:58;3.50;69.10
83553;DHT22;73510;50.866;5.420;2023-12-07T09:05:26;3.50;69.00
83553;DHT22;73510;50.866;5.420;2023-12-07T09:07:52;3.50;69.00
83553;DHT22;73510;50.866;5.420;2023-12-07T09:10:19;3.60;69.00
83553;DHT22;73510;50.866;5.420;2023-12-07T09:12:44;3.60;69.00
83553;DHT22;73510;50.866;5.420;2023-12-07T09:15:13;3.60;69.00
83553;DHT22;73510;50.866;5.420;2023-12-07T09:17:39;3.60;68.90
83553;DHT22;73510;50.866;5.420;2023-12-07T09:20:06;3.70;69.00
83553;DHT22;73510;50.866;5.420;2023-12-07T09:22:32;3.70;68.90
83553;DHT22;73510;50.866;5.420;2023-12-07T09:24:59;3.70;68.70
83553;DHT22;73510;50.866;5.420;2023-12-07T09:27:24;3.70;68.70
83553;DHT22;73510;50.866;5.420;2023-12-07T09:29:51;3.80;68.60
83553;DHT22;73510;50.866;5.420;2023-12-07T09:32:17;3.90;68.80
83553;DHT22;73510;50.866;5.420;2023-12-07T09:34:42;3.90;68.50
83553;DHT22;73510;50.866;5.420;2023-12-07T09:37:10;3.90;68.70
83553;DHT22;73510;50.866;5.420;2023-12-07T09:39:36;3.90;68.40
83553;DHT22;73510;50.866;5.420;2023-12-07T09:42:02;4.00;68.30
83553;DHT22;73510;50.866;5.420;2023-12-07T09:44:28;4.00;68.00
83553;DHT22;73510;50.866;5.420;2023-12-07T09:46:54;4.00;68.10
83553;DHT22;73510;50.866;5.420;2023-12-07T09:49:20;4.10;68.20
83553;DHT22;73510;50.866;5.420;2023-12-07T09:51:47;4.10;68.10
83553;DHT22;73510;50.866;5.420;2023-12-07T09:54:13;4.10;68.10
83553;DHT22;73510;50.866;5.420;2023-12-07T09:56:39;4.20;67.90
83553;DHT22;73510;50.866;5.420;2023-12-07T09:59:07;4.20;67.70
83553;DHT22;73510;50.866;5.420;2023-12-07T10:01:33;4.20;67.80
83553;DHT22;73510;50.866;5.420;2023-12-07T10:04:20;4.30;67.80
83553;DHT22;73510;50.866;5.420;2023-12-07T10:06:46;4.30;67.70
83553;DHT22;73510;50.866;5.420;2023-12-07T10:09:13;4.40;67.40
83553;DHT22;73510;50.866;5.420;2023-12-07T10:11:40;4.50;66.90
83553;DHT22;73510;50.866;5.420;2023-12-07T10:14:08;4.50;67.20
83553;DHT22;73510;50.866;5.420;2023-12-07T10:16:34;4.60;66.80
83553;DHT22;73510;50.866;5.420;2023-12-07T10:19:30;4.70;67.00
83553;DHT22;73510;50.866;5.420;2023-12-07T10:21:55;4.70;67.00
83553;DHT22;73510;50.866;5.420;2023-12-07T10:24:23;4.80;66.80
83553;DHT22;73510;50.866;5.420;2023-12-07T10:26:52;4.80;67.00
83553;DHT22;73510;50.866;5.420;2023-12-07T10:29:18;4.90;66.90
83553;DHT22;73510;50.866;5.420;2023-12-07T10:31:49;4.90;66.90
83553;DHT22;73510;50.866;5.420;2023-12-07T10:34:18;4.90;66.50
83553;DHT22;73510;50.866;5.420;2023-12-07T10:36:46;5.00;66.20
83553;DHT22;73510;50.866;5.420;2023-12-07T10:39:13;5.00;66.30
83553;DHT22;73510;50.866;5.420;2023-12-07T10:41:42;5.00;66.50
83553;DHT22;73510;50.866;5.420;2023-12-07T10:44:11;5.00;66.00
83553;DHT22;73510;50.866;5.420;2023-12-07T10:46:39;5.10;66.20
83553;DHT22;73510;50.866;5.420;2023-12-07T10:49:08;5.10;66.20
83553;DHT22;73510;50.866;5.420;2023-12-07T10:51:51;5.20;66.00
83553;DHT22;73510;50.866;5.420;2023-12-07T10:54:22;5.20;65.50
83553;DHT22;73510;50.866;5.420;2023-12-07T10:56:48;5.30;65.70
83553;DHT22;73510;50.866;5.420;2023-12-07T10:59:16;5.30;65.40
83553;DHT22;73510;50.866;5.420;2023-12-07T11:01:43;5.30;65.10
83553;DHT22;73510;50.866;5.420;2023-12-07T11:04:13;5.30;65.30
83553;DHT22;73510;50.866;5.420;2023-12-07T11:06:44;5.30;65.10
83553;DHT22;73510;50.866;5.420;2023-12-07T11:09:19;5.40;65.30
83553;DHT22;73510;50.866;5.420;2023-12-07T11:11:54;5.40;65.00
83553;DHT22;73510;50.866;5.420;2023-12-07T11:14:20;5.40;65.00
83553;DHT22;73510;50.866;5.420;2023-12-07T11:16:47;5.50;64.80
83553;DHT22;73510;50.866;5.420;2023-12-07T11:22:05;5.50;64.20
83553;DHT22;73510;50.866;5.420;2023-12-07T11:24:31;5.60;64.10
83553;DHT22;73510;50.866;5.420;2023-12-07T11:26:57;5.70;64.20
83553;DHT22;73510;50.866;5.420;2023-12-07T11:29:28;5.80;64.30
83553;DHT22;73510;50.866;5.420;2023-12-07T11:32:05;5.80;63.70
83553;DHT22;73510;50.866;5.420;2023-12-07T11:34:36;5.80;63.80
83553;DHT22;73510;50.866;5.420;2023-12-07T11:37:03;5.80;63.50
83553;DHT22;73510;50.866;5.420;2023-12-07T11:39:36;5.90;63.50
83553;DHT22;73510;50.866;5.420;2023-12-07T11:42:22;5.90;63.70
83553;DHT22;73510;50.866;5.420;2023-12-07T11:44:49;5.90;63.60
83553;DHT22;73510;50.866;5.420;2023-12-07T11:47:17;5.90;63.90
83553;DHT22;73510;50.866;5.420;2023-12-07T11:49:44;5.90;63.70
83553;DHT22;73510;50.866;5.420;2023-12-07T11:52:19;5.90;63.50
83553;DHT22;73510;50.866;5.420;2023-12-07T11:54:46;5.90;63.70
83553;DHT22;73510;50.866;5.420;2023-12-07T11:57:16;5.90;63.80
83553;DHT22;73510;50.866;5.420;2023-12-07T11:59:44;6.00;63.10
83553;DHT22;73510;50.866;5.420;2023-12-07T12:02:12;6.00;62.90
83553;DHT22;73510;50.866;5.420;2023-12-07T12:04:39;6.00;62.90
83553;DHT22;73510;50.866;5.420;2023-12-07T12:07:06;6.10;62.00
83553;DHT22;73510;50.866;5.420;2023-12-07T12:09:31;6.10;62.20
83553;DHT22;73510;50.866;5.420;2023-12-07T12:12:00;6.10;62.00
83553;DHT22;73510;50.866;5.420;2023-12-07T12:14:27;6.20;61.80
83553;DHT22;73510;50.866;5.420;2023-12-07T12:16:53;6.20;62.10
83553;DHT22;73510;50.866;5.420;2023-12-07T12:19:20;6.30;61.70
83553;DHT22;73510;50.866;5.420;2023-12-07T12:21:45;6.30;61.60
83553;DHT22;73510;50.866;5.420;2023-12-07T12:24:12;6.40;61.00
83553;DHT22;73510;50.866;5.420;2023-12-07T12:26:41;6.50;61.60
83553;DHT22;73510;50.866;5.420;2023-12-07T12:29:08;6.60;61.50
83553;DHT22;73510;50.866;5.420;2023-12-07T12:31:38;6.60;60.80
83553;DHT22;73510;50.866;5.420;2023-12-07T12:34:08;6.70;60.50
83553;DHT22;73510;50.866;5.420;2023-12-07T12:36:34;6.80;60.20
83553;DHT22;73510;50.866;5.420;2023-12-07T12:39:00;6.80;60.50
83553;DHT22;73510;50.866;5.420;2023-12-07T12:41:27;6.90;60.70
83553;DHT22;73510;50.866;5.420;2023-12-07T12:43:56;6.80;60.10
83553;DHT22;73510;50.866;5.420;2023-12-07T12:46:22;6.80;60.40
83553;DHT22;73510;50.866;5.420;2023-12-07T12:48:54;6.80;60.30
83553;DHT22;73510;50.866;5.420;2023-12-07T12:51:21;6.70;60.30
83553;DHT22;73510;50.866;5.420;2023-12-07T12:53:48;6.60;60.30
83553;DHT22;73510;50.866;5.420;2023-12-07T12:56:16;6.60;60.10
83553;DHT22;73510;50.866;5.420;2023-12-07T12:58:42;6.50;60.20
83553;DHT22;73510;50.866;5.420;2023-12-07T13:01:08;6.50;60.30
83553;DHT22;73510;50.866;5.420;2023-12-07T13:03:34;6.50;60.30
83553;DHT22;73510;50.866;5.420;2023-12-07T13:06:00;6.40;60.40
83553;DHT22;73510;50.866;5.420;2023-12-07T13:08:25;6.40;60.60
83553;DHT22;73510;50.866;5.420;2023-12-07T13:10:51;6.40;60.80
83553;DHT22;73510;50.866;5.420;2023-12-07T13:13:17;6.30;60.60
83553;DHT22;73510;50.866;5.420;2023-12-07T13:15:43;6.30;60.20
83553;DHT22;73510;50.866;5.420;2023-12-07T13:18:08;6.30;60.20
83553;DHT22;73510;50.866;5.420;2023-12-07T13:20:34;6.30;60.40
83553;DHT22;73510;50.866;5.420;2023-12-07T13:23:04;6.30;60.00
83553;DHT22;73510;50.866;5.420;2023-12-07T13:25:30;6.30;60.10
83553;DHT22;73510;50.866;5.420;2023-12-07T13:27:56;6.30;60.00
83553;DHT22;73510;50.866;5.420;2023-12-07T13:30:23;6.40;59.70
83553;DHT22;73510;50.866;5.420;2023-12-07T13:32:50;6.40;59.90
83553;DHT22;73510;50.866;5.420;2023-12-07T13:35:16;6.40;59.70
83553;DHT22;73510;50.866;5.420;2023-12-07T13:37:42;6.40;59.50
83553;DHT22;73510;50.866;5.420;2023-12-07T13:40:08;6.40;59.90
83553;DHT22;73510;50.866;5.420;2023-12-07T13:42:36;6.40;59.60
83553;DHT22;73510;50.866;5.420;2023-12-07T13:45:03;6.40;59.30
83553;DHT22;73510;50.866;5.420;2023-12-07T13:47:29;6.50;59.80
83553;DHT22;73510;50.866;5.420;2023-12-07T13:49:58;6.50;60.00
83553;DHT22;73510;50.866;5.420;2023-12-07T13:52:24;6.50;59.50
83553;DHT22;73510;50.866;5.420;2023-12-07T13:54:50;6.50;59.60
83553;DHT22;73510;50.866;5.420;2023-12-07T13:57:17;6.50;59.90
83553;DHT22;73510;50.866;5.420;2023-12-07T13:59:43;6.50;59.90
83553;DHT22;73510;50.866;5.420;2023-12-07T14:02:09;6.50;60.00
83553;DHT22;73510;50.866;5.420;2023-12-07T14:04:35;6.50;60.10
83553;DHT22;73510;50.866;5.420;2023-12-07T14:07:08;6.50;61.10
83553;DHT22;73510;50.866;5.420;2023-12-07T14:09:35;6.50;61.20
83553;DHT22;73510;50.866;5.420;2023-12-07T14:12:02;6.50;60.80
83553;DHT22;73510;50.866;5.420;2023-12-07T14:14:28;6.50;60.40
83553;DHT22;73510;50.866;5.420;2023-12-07T14:16:53;6.40;60.60
83553;DHT22;73510;50.866;5.420;2023-12-07T14:19:19;6.40;60.80
83553;DHT22;73510;50.866;5.420;2023-12-07T14:21:45;6.40;60.40
83553;DHT22;73510;50.866;5.420;2023-12-07T14:24:11;6.40;60.10
83553;DHT22;73510;50.866;5.420;2023-12-07T14:26:37;6.40;60.30
83553;DHT22;73510;50.866;5.420;2023-12-07T14:29:02;6.40;60.40
83553;DHT22;73510;50.866;5.420;2023-12-07T14:31:28;6.40;60.30
83553;DHT22;73510;50.866;5.420;2023-12-07T14:33:54;6.40;60.20
83553;DHT22;73510;50.866;5.420;2023-12-07T14:36:21;6.30;59.90
83553;DHT22;73510;50.866;5.420;2023-12-07T14:38:46;6.30;59.70
83553;DHT22;73510;50.866;5.420;2023-12-07T14:41:12;6.30;59.60
83553;DHT22;73510;50.866;5.420;2023-12-07T14:43:38;6.30;60.00
83553;DHT22;73510;50.866;5.420;2023-12-07T14:46:06;6.30;59.90
83553;DHT22;73510;50.866;5.420;2023-12-07T14:48:32;6.30;60.00
83553;DHT22;73510;50.866;5.420;2023-12-07T14:50:59;6.20;60.10
83553;DHT22;73510;50.866;5.420;2023-12-07T14:53:24;6.20;60.10
83553;DHT22;73510;50.866;5.420;2023-12-07T14:55:51;6.20;60.10
83553;DHT22;73510;50.866;5.420;2023-12-07T14:58:17;6.10;59.80
83553;DHT22;73510;50.866;5.420;2023-12-07T15:00:43;6.10;59.60
83553;DHT22;73510;50.866;5.420;2023-12-07T15:03:09;6.00;59.80
83553;DHT22;73510;50.866;5.420;2023-12-07T15:05:34;6.00;60.00
83553;DHT22;73510;50.866;5.420;2023-12-07T15:08:00;6.00;60.20
83553;DHT22;73510;50.866;5.420;2023-12-07T15:10:26;5.90;60.60
83553;DHT22;73510;50.866;5.420;2023-12-07T15:12:51;5.90;61.30
83553;DHT22;73510;50.866;5.420;2023-12-07T15:15:17;5.80;61.70
83553;DHT22;73510;50.866;5.420;2023-12-07T15:17:43;5.80;61.70
83553;DHT22;73510;50.866;5.420;2023-12-07T15:20:10;5.70;62.10
83553;DHT22;73510;50.866;5.420;2023-12-07T15:22:36;5.60;61.90
83553;DHT22;73510;50.866;5.420;2023-12-07T15:25:02;5.60;62.30
83553;DHT22;73510;50.866;5.420;2023-12-07T15:27:30;5.50;62.60
83553;DHT22;73510;50.866;5.420;2023-12-07T15:29:57;5.50;62.60
83553;DHT22;73510;50.866;5.420;2023-12-07T15:32:22;5.50;62.60
83553;DHT22;73510;50.866;5.420;2023-12-07T15:34:48;5.40;62.40
83553;DHT22;73510;50.866;5.420;2023-12-07T15:37:14;5.30;62.50
83553;DHT22;73510;50.866;5.420;2023-12-07T15:39:41;5.30;63.00
83553;DHT22;73510;50.866;5.420;2023-12-07T15:42:08;5.30;63.50
83553;DHT22;73510;50.866;5.420;2023-12-07T15:44:34;5.20;63.60